Time;durP1;ratioP1;P1;durP2;ratioP2;P2;SDS_P1;SDS_P2;PMS_P1;PMS_P2;Temp;Humidity;BMP_temperature;BMP_pressure;BME280_temperature;BME280_humidity;BME280_pressure;Samples;Min_cycle;Max_cycle;Signal;HPM_P1;HPM_P2
2021/07/27 00:01:51;;;;;;;;;;;19.60;93.50;;;;;;4332162;33;43014;-88
2021/07/27 00:04:18;;;;;;;;;;;19.60;93.50;;;;;;4332491;33;45088;-92
2021/07/27 00:06:46;;;;;;;;;;;19.60;93.40;;;;;;4343964;33;45736;-90
2021/07/27 00:09:12;;;;;;;;;;;19.60;93.40;;;;;;4331473;33;44741;-91
2021/07/27 00:11:40;;;;;;;;;;;19.60;93.40;;;;;;4356285;33;44192;-92
2021/07/27 00:14:07;;;;;;;;;;;19.60;93.40;;;;;;4331726;33;44332;-89
2021/07/27 00:16:34;;;;;;;;;;;19.60;93.40;;;;;;4345375;33;46007;-89
2021/07/27 00:19:01;;;;;;;;;;;19.60;93.40;;;;;;4331762;33;44167;-89
2021/07/27 00:21:28;;;;;;;;;;;19.60;93.40;;;;;;4356792;33;45776;-89
2021/07/27 00:23:55;;;;;;;;;;;19.60;93.40;;;;;;4358749;32;45677;-90
2021/07/27 00:26:24;;;;;;;;;;;19.60;93.40;;;;;;4334794;33;44098;-90
2021/07/27 00:28:52;;;;;;;;;;;19.60;93.40;;;;;;4359486;32;43337;-90
2021/07/27 00:31:19;;;;;;;;;;;19.60;93.40;;;;;;4334370;33;44623;-91
2021/07/27 00:33:46;;;;;;;;;;;19.50;93.40;;;;;;4358977;32;44774;-92
2021/07/27 00:36:14;;;;;;;;;;;19.50;93.50;;;;;;4359040;32;45271;-92
2021/07/27 00:38:41;;;;;;;;;;;19.50;93.50;;;;;;4359690;32;43053;-91
2021/07/27 00:41:08;;;;;;;;;;;19.50;93.50;;;;;;4358947;32;43272;-92
2021/07/27 00:43:35;;;;;;;;;;;19.50;93.50;;;;;;4348293;33;44968;-90
2021/07/27 00:46:02;;;;;;;;;;;19.50;93.60;;;;;;4359877;32;44763;-90
2021/07/27 00:48:29;;;;;;;;;;;19.50;93.60;;;;;;4334564;33;44510;-90
2021/07/27 00:50:57;;;;;;;;;;;19.40;93.70;;;;;;4347913;33;45089;-88
2021/07/27 00:53:24;;;;;;;;;;;19.40;93.70;;;;;;4348053;33;44796;-90
2021/07/27 00:55:51;;;;;;;;;;;19.40;93.70;;;;;;4359657;32;45649;-92
2021/07/27 00:58:18;;;;;;;;;;;19.30;93.70;;;;;;4359948;32;44717;-93
2021/07/27 01:00:45;;;;;;;;;;;19.30;93.80;;;;;;4348616;33;44845;-93
2021/07/27 01:03:14;;;;;;;;;;;19.30;93.80;;;;;;4358874;32;44145;-91
2021/07/27 01:05:41;;;;;;;;;;;19.30;93.90;;;;;;4346258;33;42432;-90
2021/07/27 01:08:08;;;;;;;;;;;19.20;93.80;;;;;;4358880;32;43430;-90
2021/07/27 01:10:35;;;;;;;;;;;19.20;93.90;;;;;;4334860;33;45036;-90
2021/07/27 01:13:03;;;;;;;;;;;19.20;93.90;;;;;;4358034;32;45992;-89
2021/07/27 01:15:30;;;;;;;;;;;19.20;93.80;;;;;;4346271;33;45642;-90
2021/07/27 01:18:07;;;;;;;;;;;19.20;93.80;;;;;;4358253;32;44837;-92
2021/07/27 01:37:37;;;;;;;;;;;19.10;94.00;;;;;;4347882;33;45213;-90
2021/07/27 01:40:06;;;;;;;;;;;19.00;94.00;;;;;;4359182;32;44251;-91
2021/07/27 01:42:39;;;;;;;;;;;19.00;94.00;;;;;;4345999;33;44232;-90
2021/07/27 01:45:06;;;;;;;;;;;19.00;94.10;;;;;;4358942;32;42505;-91
2021/07/27 01:47:33;;;;;;;;;;;19.00;94.10;;;;;;4346150;33;44832;-92
2021/07/27 01:50:00;;;;;;;;;;;19.00;94.10;;;;;;4347579;33;44903;-92
2021/07/27 01:52:27;;;;;;;;;;;18.90;94.10;;;;;;4347154;33;45132;-91
2021/07/27 01:54:55;;;;;;;;;;;18.90;94.10;;;;;;4346976;33;44119;-89
2021/07/27 01:57:24;;;;;;;;;;;18.90;94.10;;;;;;4357862;32;43077;-92
2021/07/27 01:59:55;;;;;;;;;;;18.90;94.10;;;;;;4345800;33;43016;-91
2021/07/27 02:02:22;;;;;;;;;;;18.90;94.10;;;;;;4345663;33;45130;-91
2021/07/27 02:04:50;;;;;;;;;;;18.90;94.20;;;;;;4346637;33;20014;-89
2021/07/27 02:07:17;;;;;;;;;;;18.80;94.20;;;;;;4346594;33;44772;-92
2021/07/27 02:09:45;;;;;;;;;;;18.80;94.20;;;;;;4346242;33;45689;-91
2021/07/27 02:12:18;;;;;;;;;;;18.90;94.20;;;;;;4357361;32;44736;-89
2021/07/27 02:17:31;;;;;;;;;;;18.90;94.20;;;;;;4346751;33;45676;-89
2021/07/27 02:19:59;;;;;;;;;;;18.90;94.20;;;;;;4345207;33;43386;-90
2021/07/27 02:22:26;;;;;;;;;;;18.90;94.10;;;;;;4357497;32;44502;-89
2021/07/27 02:24:53;;;;;;;;;;;18.90;94.40;;;;;;4332530;33;44879;-90
2021/07/27 02:27:20;;;;;;;;;;;18.80;94.10;;;;;;4357483;32;45164;-90
2021/07/27 02:29:48;;;;;;;;;;;18.90;94.10;;;;;;4357046;32;46061;-90
2021/07/27 02:32:16;;;;;;;;;;;18.90;94.10;;;;;;4333519;33;43474;-92
2021/07/27 02:34:43;;;;;;;;;;;18.90;94.10;;;;;;4358281;32;45705;-91
2021/07/27 02:37:10;;;;;;;;;;;18.80;94.10;;;;;;4346790;33;45916;-92
2021/07/27 02:39:38;;;;;;;;;;;18.80;94.10;;;;;;4357412;32;44330;-91
2021/07/27 02:42:05;;;;;;;;;;;18.80;94.20;;;;;;4357628;32;44290;-89
2021/07/27 02:44:32;;;;;;;;;;;18.70;94.20;;;;;;4357248;32;45759;-91
2021/07/27 02:47:03;;;;;;;;;;;18.70;94.30;;;;;;4333188;33;44322;-91
2021/07/27 02:49:30;;;;;;;;;;;18.70;94.30;;;;;;4356935;32;45765;-91
2021/07/27 02:51:57;;;;;;;;;;;18.70;94.30;;;;;;4357914;32;44513;-91
2021/07/27 02:54:24;;;;;;;;;;;18.70;94.40;;;;;;4357879;32;44842;-89
2021/07/27 02:56:51;;;;;;;;;;;18.70;94.40;;;;;;4357359;32;44697;-90
2021/07/27 02:59:18;;;;;;;;;;;18.70;94.30;;;;;;4332663;33;43492;-92
2021/07/27 03:01:45;;;;;;;;;;;18.70;94.30;;;;;;4346291;33;44944;-93
2021/07/27 03:04:13;;;;;;;;;;;18.70;94.30;;;;;;4357149;32;45905;-91
2021/07/27 03:06:45;;;;;;;;;;;18.70;94.30;;;;;;4357604;32;42951;-93
2021/07/27 03:09:16;;;;;;;;;;;18.70;94.30;;;;;;4333929;33;45865;-91
2021/07/27 03:11:43;;;;;;;;;;;18.70;94.30;;;;;;4346419;33;45687;-90
2021/07/27 03:14:10;;;;;;;;;;;18.70;94.30;;;;;;4357069;32;43762;-91
2021/07/27 03:16:47;;;;;;;;;;;18.70;94.40;;;;;;4333029;33;43993;-90
2021/07/27 03:19:17;;;;;;;;;;;18.70;94.40;;;;;;4356971;33;45743;-89
2021/07/27 03:21:45;;;;;;;;;;;18.70;94.40;;;;;;4332815;33;44684;-92
2021/07/27 03:24:12;;;;;;;;;;;18.70;94.40;;;;;;4357472;33;44350;-91
2021/07/27 03:26:39;;;;;;;;;;;18.70;94.30;;;;;;4332707;33;44953;-90
2021/07/27 03:29:07;;;;;;;;;;;18.70;94.40;;;;;;4345943;33;45916;-90
2021/07/27 03:31:34;;;;;;;;;;;18.70;94.40;;;;;;4332714;33;44834;-89
2021/07/27 03:34:01;;;;;;;;;;;18.80;94.40;;;;;;4357389;33;43087;-91
2021/07/27 03:36:29;;;;;;;;;;;18.80;94.40;;;;;;4344594;33;44109;-90
2021/07/27 03:38:56;;;;;;;;;;;18.70;94.40;;;;;;4356836;33;43941;-91
2021/07/27 03:41:24;;;;;;;;;;;18.70;94.40;;;;;;4356722;33;44797;-90
2021/07/27 03:43:51;;;;;;;;;;;18.70;94.50;;;;;;4333125;33;45011;-92
2021/07/27 03:46:19;;;;;;;;;;;18.70;94.50;;;;;;4345040;33;44690;-92
2021/07/27 03:48:46;;;;;;;;;;;18.70;94.50;;;;;;4333029;33;43851;-89
2021/07/27 03:51:13;;;;;;;;;;;18.70;94.50;;;;;;4356696;33;45771;-91
2021/07/27 03:53:40;;;;;;;;;;;18.70;94.50;;;;;;4356359;33;44122;-90
2021/07/27 03:56:09;;;;;;;;;;;18.70;94.50;;;;;;4332282;33;43098;-92
2021/07/27 03:58:36;;;;;;;;;;;18.70;94.50;;;;;;4347014;33;44837;-91
2021/07/27 04:01:06;;;;;;;;;;;18.60;94.50;;;;;;4335280;33;43785;-91
2021/07/27 04:03:33;;;;;;;;;;;18.70;94.60;;;;;;4359580;32;43988;-91
2021/07/27 04:06:01;;;;;;;;;;;18.60;94.50;;;;;;4359291;32;44378;-91
2021/07/27 04:08:28;;;;;;;;;;;18.70;94.60;;;;;;4334992;33;45862;-89
2021/07/27 04:10:55;;;;;;;;;;;18.70;94.60;;;;;;4346992;33;44427;-92
2021/07/27 04:13:22;;;;;;;;;;;18.60;94.50;;;;;;4348766;33;44058;-91
2021/07/27 04:15:49;;;;;;;;;;;18.60;94.60;;;;;;4359548;32;44860;-91
2021/07/27 04:18:16;;;;;;;;;;;18.60;94.60;;;;;;4347421;33;44755;-89
2021/07/27 04:20:43;;;;;;;;;;;18.50;94.60;;;;;;4347692;33;44123;-88
2021/07/27 04:23:13;;;;;;;;;;;18.50;94.70;;;;;;4334889;33;43707;-88
2021/07/27 04:25:40;;;;;;;;;;;18.50;94.70;;;;;;4359370;32;45307;-91
2021/07/27 04:28:07;;;;;;;;;;;18.50;94.70;;;;;;4334824;33;44502;-90
2021/07/27 04:30:34;;;;;;;;;;;18.40;94.80;;;;;;4347896;33;42518;-88
2021/07/27 04:33:02;;;;;;;;;;;18.50;94.80;;;;;;4358686;32;44131;-87
2021/07/27 04:35:29;;;;;;;;;;;18.40;94.80;;;;;;4347947;33;44062;-91
2021/07/27 04:37:56;;;;;;;;;;;18.40;94.90;;;;;;4358772;32;45121;-92
2021/07/27 04:40:23;;;;;;;;;;;18.40;94.90;;;;;;4359281;32;44811;-92
2021/07/27 04:42:50;;;;;;;;;;;18.40;95.00;;;;;;4358783;32;43132;-90
2021/07/27 04:45:17;;;;;;;;;;;18.40;95.00;;;;;;4346826;33;42784;-91
2021/07/27 04:47:44;;;;;;;;;;;18.40;95.00;;;;;;4347830;33;44310;-90
2021/07/27 04:50:12;;;;;;;;;;;18.40;95.00;;;;;;4359129;32;45154;-90
2021/07/27 04:52:41;;;;;;;;;;;18.40;95.00;;;;;;4333902;33;44673;-88
2021/07/27 04:55:09;;;;;;;;;;;18.40;95.00;;;;;;4359053;32;45887;-89
2021/07/27 04:57:36;;;;;;;;;;;18.40;95.00;;;;;;4347295;33;44191;-88
2021/07/27 05:00:16;;;;;;;;;;;18.40;95.10;;;;;;4358063;32;45800;-85
2021/07/27 05:02:43;;;;;;;;;;;18.40;95.10;;;;;;4345838;33;44842;-91
2021/07/27 05:05:13;;;;;;;;;;;18.30;95.10;;;;;;4346283;33;45763;-84
2021/07/27 05:07:40;;;;;;;;;;;18.40;95.10;;;;;;4347393;33;42986;-90
2021/07/27 05:10:07;;;;;;;;;;;18.40;95.20;;;;;;4346461;33;45721;-83
2021/07/27 05:12:35;;;;;;;;;;;18.30;95.20;;;;;;4357901;32;44521;-89
2021/07/27 05:15:03;;;;;;;;;;;18.30;95.20;;;;;;4346152;33;45780;-85
2021/07/27 05:17:34;;;;;;;;;;;18.30;95.30;;;;;;4347112;33;44744;-88
2021/07/27 05:20:02;;;;;;;;;;;18.20;95.20;;;;;;4345673;33;43380;-84
2021/07/27 05:22:29;;;;;;;;;;;18.30;95.30;;;;;;4346776;33;45916;-90
2021/07/27 05:24:56;;;;;;;;;;;18.30;95.30;;;;;;4357684;32;45824;-88
2021/07/27 05:27:28;;;;;;;;;;;18.20;95.30;;;;;;4347088;33;45111;-87
2021/07/27 05:29:56;;;;;;;;;;;18.20;95.30;;;;;;4358153;32;43317;-91
2021/07/27 05:32:23;;;;;;;;;;;18.30;95.40;;;;;;4345754;33;45989;-89
2021/07/27 05:34:51;;;;;;;;;;;18.20;95.50;;;;;;4346944;32;44526;-88
2021/07/27 05:37:18;;;;;;;;;;;18.20;95.50;;;;;;4345487;33;44108;-87
2021/07/27 05:39:45;;;;;;;;;;;18.20;95.50;;;;;;4357427;32;42677;-88
2021/07/27 05:42:13;;;;;;;;;;;18.20;95.50;;;;;;4346492;33;44484;-87
2021/07/27 05:44:40;;;;;;;;;;;18.20;95.50;;;;;;4357478;32;43468;-89
2021/07/27 05:47:07;;;;;;;;;;;18.20;95.50;;;;;;4357633;32;45940;-90
2021/07/27 05:49:36;;;;;;;;;;;18.20;95.50;;;;;;4346784;33;45718;-86
2021/07/27 05:52:04;;;;;;;;;;;18.20;95.50;;;;;;4357692;32;43443;-89
2021/07/27 05:54:31;;;;;;;;;;;18.20;95.50;;;;;;4346238;33;44297;-91
2021/07/27 05:56:58;;;;;;;;;;;18.20;95.50;;;;;;4357483;32;44162;-87
2021/07/27 05:59:25;;;;;;;;;;;18.20;95.60;;;;;;4345177;33;43257;-87
2021/07/27 06:01:55;;;;;;;;;;;18.20;95.60;;;;;;4357011;32;44294;-85
2021/07/27 06:04:22;;;;;;;;;;;18.20;95.60;;;;;;4345465;33;44822;-88
2021/07/27 06:06:50;;;;;;;;;;;18.20;95.60;;;;;;4356943;32;43975;-88
2021/07/27 06:09:17;;;;;;;;;;;18.20;95.60;;;;;;4344419;33;45067;-86
2021/07/27 06:11:47;;;;;;;;;;;18.20;95.60;;;;;;4332646;33;45511;-88
2021/07/27 06:14:14;;;;;;;;;;;18.30;95.60;;;;;;4346087;33;43477;-88
2021/07/27 06:16:42;;;;;;;;;;;18.30;95.60;;;;;;4332804;33;43077;-84
2021/07/27 06:19:09;;;;;;;;;;;18.30;95.70;;;;;;4344906;33;43865;-85
2021/07/27 06:21:40;;;;;;;;;;;18.30;95.60;;;;;;4331975;33;43095;-89
2021/07/27 06:24:08;;;;;;;;;;;18.30;95.70;;;;;;4346164;33;44257;-89
2021/07/27 06:26:35;;;;;;;;;;;18.30;95.70;;;;;;4344771;33;43375;-89
2021/07/27 06:29:04;;;;;;;;;;;18.30;95.60;;;;;;4344963;33;44263;-87
2021/07/27 06:31:31;;;;;;;;;;;18.30;95.60;;;;;;4345228;33;44498;-87
2021/07/27 06:33:58;;;;;;;;;;;18.30;95.60;;;;;;4356788;32;43308;-87
2021/07/27 06:36:27;;;;;;;;;;;18.30;95.60;;;;;;4356644;32;44157;-86
2021/07/27 06:38:55;;;;;;;;;;;18.30;95.60;;;;;;4344083;33;44360;-89
2021/07/27 06:41:25;;;;;;;;;;;18.30;95.70;;;;;;4356886;32;42619;-87
2021/07/27 06:43:52;;;;;;;;;;;18.30;95.70;;;;;;4345876;33;44153;-86
2021/07/27 06:46:19;;;;;;;;;;;18.40;95.70;;;;;;4357171;32;45730;-85
2021/07/27 06:48:46;;;;;;;;;;;18.40;95.70;;;;;;4344775;33;43348;-87
2021/07/27 06:51:14;;;;;;;;;;;18.40;95.70;;;;;;4345282;33;44228;-85
2021/07/27 06:53:44;;;;;;;;;;;18.40;95.70;;;;;;4357016;32;43406;-88
2021/07/27 06:56:11;;;;;;;;;;;18.40;95.70;;;;;;4356417;32;43295;-88
2021/07/27 06:58:41;;;;;;;;;;;18.40;95.80;;;;;;4355966;32;44773;-88
2021/07/27 07:01:09;;;;;;;;;;;18.40;95.70;;;;;;4332399;33;45762;-91
2021/07/27 07:03:37;;;;;;;;;;;18.40;95.70;;;;;;4355887;32;43081;-87
2021/07/27 07:06:05;;;;;;;;;;;18.40;95.70;;;;;;4343509;33;44649;-86
2021/07/27 07:08:35;;;;;;;;;;;18.50;95.70;;;;;;4355776;33;43283;-87
2021/07/27 07:11:05;;;;;;;;;;;18.50;95.70;;;;;;4356147;33;45716;-87
2021/07/27 07:13:32;;;;;;;;;;;18.50;95.70;;;;;;4356212;33;45745;-88
2021/07/27 07:16:00;;;;;;;;;;;18.50;95.80;;;;;;4344850;33;44887;-86
2021/07/27 07:18:27;;;;;;;;;;;18.50;95.80;;;;;;4356252;33;45679;-87
2021/07/27 07:20:57;;;;;;;;;;;18.50;95.70;;;;;;4355500;33;44184;-86
2021/07/27 07:23:29;;;;;;;;;;;18.60;95.70;;;;;;4331375;33;43373;-91
2021/07/27 07:25:57;;;;;;;;;;;18.60;95.80;;;;;;4355920;33;44694;-89
2021/07/27 07:28:24;;;;;;;;;;;18.60;95.80;;;;;;4331546;33;44686;-87
2021/07/27 07:30:51;;;;;;;;;;;18.70;95.80;;;;;;4355487;33;45973;-87
2021/07/27 07:33:18;;;;;;;;;;;18.70;95.90;;;;;;4332526;33;43984;-85
2021/07/27 07:35:48;;;;;;;;;;;18.70;95.80;;;;;;4358145;33;44833;-88
2021/07/27 07:38:22;;;;;;;;;;;18.80;95.90;;;;;;4358515;33;45146;-86
2021/07/27 07:40:52;;;;;;;;;;;18.80;95.90;;;;;;4346073;33;44690;-85
2021/07/27 07:43:19;;;;;;;;;;;18.80;95.90;;;;;;4358014;33;43953;-87
2021/07/27 07:45:46;;;;;;;;;;;18.80;95.90;;;;;;4345748;33;42613;-86
2021/07/27 07:48:22;;;;;;;;;;;18.90;95.90;;;;;;4358185;33;44784;-85
2021/07/27 07:50:52;;;;;;;;;;;18.90;95.90;;;;;;4346006;33;45665;-89
2021/07/27 07:53:21;;;;;;;;;;;19.00;95.90;;;;;;4345664;33;45160;-91
2021/07/27 07:55:48;;;;;;;;;;;19.00;95.90;;;;;;4334270;33;44144;-84
2021/07/27 07:58:15;;;;;;;;;;;19.00;95.90;;;;;;4357709;33;44612;-89
2021/07/27 08:00:45;;;;;;;;;;;19.00;95.90;;;;;;4358436;33;44434;-90
2021/07/27 08:03:19;;;;;;;;;;;19.00;95.80;;;;;;4334848;33;45009;-89
2021/07/27 08:05:54;;;;;;;;;;;19.10;95.80;;;;;;4359270;32;45485;-89
2021/07/27 08:08:22;;;;;;;;;;;19.10;95.80;;;;;;4348686;33;20001;-89
2021/07/27 08:10:49;;;;;;;;;;;19.10;95.90;;;;;;4358698;32;43346;-85
2021/07/27 08:13:21;;;;;;;;;;;19.20;96.00;;;;;;4347882;33;44793;-89
2021/07/27 08:15:57;;;;;;;;;;;19.20;95.90;;;;;;4359039;32;44119;-87
2021/07/27 08:18:30;;;;;;;;;;;19.20;95.90;;;;;;4358564;32;42804;-87
2021/07/27 08:21:06;;;;;;;;;;;19.20;95.80;;;;;;4346936;33;46104;-87
2021/07/27 08:23:33;;;;;;;;;;;19.30;95.90;;;;;;4359337;32;44082;-88
2021/07/27 08:26:00;;;;;;;;;;;19.30;95.80;;;;;;4334393;33;42953;-84
2021/07/27 08:28:33;;;;;;;;;;;19.30;95.80;;;;;;4358720;32;45419;-90
2021/07/27 08:31:03;;;;;;;;;;;19.30;95.70;;;;;;4346916;33;44473;-92
2021/07/27 08:33:30;;;;;;;;;;;19.30;95.70;;;;;;4358546;32;44956;-89
2021/07/27 08:36:03;;;;;;;;;;;19.30;95.70;;;;;;4358676;32;43284;-88
2021/07/27 08:38:34;;;;;;;;;;;19.30;95.70;;;;;;4335291;33;20032;-87
2021/07/27 08:41:06;;;;;;;;;;;19.40;95.70;;;;;;4359053;32;45136;-86
2021/07/27 08:43:33;;;;;;;;;;;19.40;95.70;;;;;;4348038;33;44097;-90
2021/07/27 08:46:01;;;;;;;;;;;19.40;95.70;;;;;;4359395;32;43800;-89
2021/07/27 08:48:28;;;;;;;;;;;19.40;95.70;;;;;;4347291;33;43351;-91
2021/07/27 08:50:55;;;;;;;;;;;19.40;95.60;;;;;;4347796;33;42925;-90
2021/07/27 08:53:23;;;;;;;;;;;19.40;95.60;;;;;;4359362;32;43480;-91
2021/07/27 08:55:50;;;;;;;;;;;19.40;95.60;;;;;;4334522;33;44893;-90
2021/07/27 08:58:20;;;;;;;;;;;19.50;95.60;;;;;;4358965;32;45910;-90
2021/07/27 09:00:47;;;;;;;;;;;19.50;95.50;;;;;;4334156;33;41942;-90
2021/07/27 09:03:20;;;;;;;;;;;19.50;95.60;;;;;;4358192;32;44746;-90
2021/07/27 09:05:50;;;;;;;;;;;19.50;95.50;;;;;;4358624;32;45744;-86
2021/07/27 09:08:17;;;;;;;;;;;19.50;95.50;;;;;;4347981;33;44333;-91
2021/07/27 09:10:45;;;;;;;;;;;19.50;95.50;;;;;;4347490;33;44196;-89
2021/07/27 09:13:13;;;;;;;;;;;19.60;95.50;;;;;;4334082;33;45014;-90
2021/07/27 09:15:41;;;;;;;;;;;19.60;95.50;;;;;;4358563;32;43304;-91
2021/07/27 09:18:14;;;;;;;;;;;19.60;95.70;;;;;;4358319;32;45755;-92
2021/07/27 09:20:43;;;;;;;;;;;19.60;95.30;;;;;;4358491;32;44805;-92
2021/07/27 09:23:14;;;;;;;;;;;19.60;95.30;;;;;;4346468;33;45222;-88
2021/07/27 09:25:54;;;;;;;;;;;19.70;95.30;;;;;;4346918;33;44733;-89
2021/07/27 09:28:21;;;;;;;;;;;19.70;95.30;;;;;;4358580;32;45177;-89
2021/07/27 09:30:52;;;;;;;;;;;19.60;95.20;;;;;;4358800;32;44649;-90
2021/07/27 09:33:30;;;;;;;;;;;19.70;95.20;;;;;;4358260;32;43117;-88
2021/07/27 09:36:03;;;;;;;;;;;19.70;95.20;;;;;;4358173;32;44956;-88
2021/07/27 09:38:33;;;;;;;;;;;19.70;95.20;;;;;;4357892;32;44156;-89
2021/07/27 09:41:08;;;;;;;;;;;19.70;95.20;;;;;;4334448;33;20044;-89
2021/07/27 09:43:44;;;;;;;;;;;19.70;95.20;;;;;;4357392;32;44814;-89
2021/07/27 09:46:15;;;;;;;;;;;19.70;95.10;;;;;;4345582;33;44912;-88
2021/07/27 09:48:43;;;;;;;;;;;19.70;95.10;;;;;;4346829;33;44227;-88
2021/07/27 09:51:16;;;;;;;;;;;19.70;95.10;;;;;;4346747;33;44319;-89
2021/07/27 09:53:47;;;;;;;;;;;19.70;95.10;;;;;;4358317;32;45853;-89
2021/07/27 09:56:17;;;;;;;;;;;19.70;95.10;;;;;;4357503;32;45052;-90
2021/07/27 09:58:46;;;;;;;;;;;19.70;95.10;;;;;;4346369;33;45166;-91
2021/07/27 10:01:15;;;;;;;;;;;19.70;95.10;;;;;;4346658;33;44767;-87
2021/07/27 10:03:52;;;;;;;;;;;19.70;95.10;;;;;;4345087;33;45729;-88
2021/07/27 10:06:29;;;;;;;;;;;19.70;95.10;;;;;;4345615;33;43697;-91
2021/07/27 10:09:02;;;;;;;;;;;19.80;95.10;;;;;;4345405;33;44862;-87
2021/07/27 10:11:41;;;;;;;;;;;19.80;95.10;;;;;;4346202;33;20005;-90
2021/07/27 10:14:12;;;;;;;;;;;19.80;95.10;;;;;;4357589;32;45104;-91
2021/07/27 10:16:40;;;;;;;;;;;19.70;95.00;;;;;;4346767;33;44718;-91
2021/07/27 10:19:14;;;;;;;;;;;19.80;95.10;;;;;;4357755;32;44832;-89
2021/07/27 10:21:47;;;;;;;;;;;19.80;95.10;;;;;;4357690;32;43458;-91
2021/07/27 10:24:23;;;;;;;;;;;19.80;95.00;;;;;;4345668;33;45678;-89
2021/07/27 10:26:50;;;;;;;;;;;19.80;95.00;;;;;;4357538;32;44242;-90
2021/07/27 10:29:30;;;;;;;;;;;19.80;95.00;;;;;;4333003;33;44914;-86
2021/07/27 10:32:09;;;;;;;;;;;19.80;95.00;;;;;;4357579;32;42999;-89
2021/07/27 10:34:44;;;;;;;;;;;19.80;95.00;;;;;;4345778;33;41969;-89
2021/07/27 10:37:12;;;;;;;;;;;19.90;95.00;;;;;;4357128;32;44071;-89
2021/07/27 10:39:48;;;;;;;;;;;19.90;95.00;;;;;;4357257;32;43968;-90
2021/07/27 10:42:16;;;;;;;;;;;19.90;95.00;;;;;;4345275;33;42418;-91
2021/07/27 10:44:44;;;;;;;;;;;19.90;95.00;;;;;;4332538;33;45728;-90
2021/07/27 10:47:21;;;;;;;;;;;19.90;95.00;;;;;;4345747;33;44223;-84
2021/07/27 10:50:05;;;;;;;;;;;19.90;94.90;;;;;;4357155;32;43474;-90
2021/07/27 10:52:38;;;;;;;;;;;20.00;94.90;;;;;;4346034;33;43488;-86
2021/07/27 10:55:08;;;;;;;;;;;20.00;94.90;;;;;;4332854;33;44918;-90
2021/07/27 10:57:36;;;;;;;;;;;20.00;94.90;;;;;;4358034;32;20002;-84
2021/07/27 11:00:07;;;;;;;;;;;20.00;94.80;;;;;;4344766;33;44668;-89
2021/07/27 11:02:42;;;;;;;;;;;20.00;94.80;;;;;;4345485;33;44776;-89
2021/07/27 11:05:12;;;;;;;;;;;20.10;94.80;;;;;;4332577;33;45283;-90
2021/07/27 11:07:39;;;;;;;;;;;20.10;94.80;;;;;;4356365;32;45223;-88
2021/07/27 11:10:09;;;;;;;;;;;20.10;94.80;;;;;;4345160;33;44251;-89
2021/07/27 11:12:40;;;;;;;;;;;20.10;94.80;;;;;;4358137;32;20049;-90
2021/07/27 11:15:11;;;;;;;;;;;20.20;94.80;;;;;;4344738;33;44292;-89
2021/07/27 11:17:51;;;;;;;;;;;20.20;94.70;;;;;;4356419;32;45977;-88
2021/07/27 11:20:22;;;;;;;;;;;20.20;94.70;;;;;;4345737;33;46425;-90
2021/07/27 11:22:54;;;;;;;;;;;20.20;94.70;;;;;;4356633;33;45702;-89
2021/07/27 11:25:24;;;;;;;;;;;20.20;94.70;;;;;;4357114;33;44143;-90
2021/07/27 11:27:57;;;;;;;;;;;20.20;94.70;;;;;;4356903;33;44835;-90
2021/07/27 11:30:34;;;;;;;;;;;20.20;94.70;;;;;;4344886;33;46387;-88
2021/07/27 11:33:07;;;;;;;;;;;20.30;94.60;;;;;;4356887;33;45589;-87
2021/07/27 11:36:00;;;;;;;;;;;20.30;94.50;;;;;;4344179;33;43798;-89
2021/07/27 11:38:29;;;;;;;;;;;20.30;94.40;;;;;;4354044;33;44687;-88
2021/07/27 11:41:05;;;;;;;;;;;20.40;94.50;;;;;;4344722;33;43388;-88
2021/07/27 11:43:35;;;;;;;;;;;20.40;94.40;;;;;;4345759;33;20465;-87
2021/07/27 11:46:11;;;;;;;;;;;20.30;94.40;;;;;;4356309;33;43255;-89
2021/07/27 11:48:45;;;;;;;;;;;20.40;94.40;;;;;;4345357;33;43826;-85
2021/07/27 11:51:14;;;;;;;;;;;20.40;94.40;;;;;;4345219;33;44761;-89
2021/07/27 11:53:54;;;;;;;;;;;20.40;94.30;;;;;;4356146;33;44987;-88
2021/07/27 11:56:21;;;;;;;;;;;20.40;94.10;;;;;;4344164;33;44284;-85
2021/07/27 11:58:48;;;;;;;;;;;20.40;94.20;;;;;;4355813;33;42885;-89
2021/07/27 12:01:20;;;;;;;;;;;20.40;94.30;;;;;;4343521;33;44536;-86
2021/07/27 12:03:53;;;;;;;;;;;20.50;94.30;;;;;;4344652;33;43007;-89
2021/07/27 12:06:23;;;;;;;;;;;20.50;94.30;;;;;;4356250;33;45889;-89
2021/07/27 12:08:50;;;;;;;;;;;20.50;94.30;;;;;;4331340;33;45336;-89
2021/07/27 12:11:22;;;;;;;;;;;20.50;94.30;;;;;;4356255;33;44226;-86
2021/07/27 12:13:49;;;;;;;;;;;20.50;94.30;;;;;;4344950;33;20043;-84
2021/07/27 12:16:19;;;;;;;;;;;20.50;94.20;;;;;;4331834;33;43175;-88
2021/07/27 12:18:46;;;;;;;;;;;20.50;94.20;;;;;;4345665;33;44191;-87
2021/07/27 12:21:18;;;;;;;;;;;20.50;94.10;;;;;;4358682;32;44906;-88
2021/07/27 12:23:45;;;;;;;;;;;20.50;94.10;;;;;;4358797;32;45355;-87
2021/07/27 12:26:17;;;;;;;;;;;20.50;94.10;;;;;;4333793;33;44544;-85
2021/07/27 12:28:49;;;;;;;;;;;20.60;94.00;;;;;;4358983;32;44517;-88
2021/07/27 12:31:22;;;;;;;;;;;20.60;94.00;;;;;;4346763;33;44770;-85
2021/07/27 12:33:52;;;;;;;;;;;20.60;94.00;;;;;;4347967;33;44684;-89
2021/07/27 12:36:22;;;;;;;;;;;20.60;94.00;;;;;;4334268;33;43451;-90
2021/07/27 12:38:52;;;;;;;;;;;20.60;94.00;;;;;;4346513;33;43407;-89
2021/07/27 12:41:19;;;;;;;;;;;20.60;93.80;;;;;;4333869;33;44289;-88
2021/07/27 12:43:49;;;;;;;;;;;20.70;94.00;;;;;;4358636;32;44699;-86
2021/07/27 12:46:22;;;;;;;;;;;20.70;94.00;;;;;;4347191;33;45166;-89
2021/07/27 12:48:59;;;;;;;;;;;20.80;94.00;;;;;;4334258;33;45712;-89
2021/07/27 12:51:29;;;;;;;;;;;20.80;93.90;;;;;;4347340;33;44035;-87
2021/07/27 12:53:56;;;;;;;;;;;20.80;93.90;;;;;;4334406;33;44945;-87
2021/07/27 12:56:23;;;;;;;;;;;20.80;93.90;;;;;;4347306;33;43470;-89
2021/07/27 12:58:55;;;;;;;;;;;20.80;93.80;;;;;;4333897;33;43490;-90
2021/07/27 13:01:22;;;;;;;;;;;20.80;93.90;;;;;;4358615;32;45037;-86
2021/07/27 13:03:50;;;;;;;;;;;20.80;93.90;;;;;;4358629;32;42937;-89
2021/07/27 13:06:19;;;;;;;;;;;20.90;93.90;;;;;;4346861;33;46039;-90
2021/07/27 13:08:46;;;;;;;;;;;20.90;93.80;;;;;;4358157;32;44294;-88
2021/07/27 13:11:14;;;;;;;;;;;20.90;93.60;;;;;;4333269;33;45782;-88
2021/07/27 13:13:44;;;;;;;;;;;20.90;93.70;;;;;;4358280;32;45540;-90
2021/07/27 13:16:11;;;;;;;;;;;20.90;93.80;;;;;;4358344;32;44174;-87
2021/07/27 13:18:43;;;;;;;;;;;20.90;93.80;;;;;;4346623;33;43458;-88
2021/07/27 13:21:10;;;;;;;;;;;20.80;93.80;;;;;;4347112;33;43192;-89
2021/07/27 13:23:39;;;;;;;;;;;20.90;93.80;;;;;;4346052;33;44222;-84
2021/07/27 13:26:11;;;;;;;;;;;20.90;93.80;;;;;;4346773;33;45144;-83
2021/07/27 13:28:38;;;;;;;;;;;20.80;93.40;;;;;;4357800;32;44778;-82
2021/07/27 13:31:11;;;;;;;;;;;20.70;93.50;;;;;;4356694;32;43921;-79
2021/07/27 13:33:44;;;;;;;;;;;20.50;93.60;;;;;;4333674;33;45355;-79
2021/07/27 13:36:11;;;;;;;;;;;20.50;93.60;;;;;;4345009;33;43971;-78
2021/07/27 13:38:42;;;;;;;;;;;20.40;93.50;;;;;;4333323;33;46093;-81
2021/07/27 13:41:12;;;;;;;;;;;20.30;93.60;;;;;;4357651;32;45009;-82
2021/07/27 13:43:47;;;;;;;;;;;20.30;93.80;;;;;;4346306;33;43270;-79
2021/07/27 13:46:17;;;;;;;;;;;20.20;93.80;;;;;;4346341;33;44683;-81
2021/07/27 13:48:47;;;;;;;;;;;20.20;94.10;;;;;;4357647;32;43095;-79
2021/07/27 13:51:22;;;;;;;;;;;20.20;93.80;;;;;;4332956;33;45886;-79
2021/07/27 13:53:51;;;;;;;;;;;20.20;93.70;;;;;;4357609;32;43715;-79
2021/07/27 13:56:25;;;;;;;;;;;20.20;93.80;;;;;;4344706;33;44224;-81
2021/07/27 13:58:58;;;;;;;;;;;20.10;93.70;;;;;;4357385;32;46096;-83
2021/07/27 14:01:27;;;;;;;;;;;20.10;93.90;;;;;;4345079;33;45785;-82
2021/07/27 14:03:57;;;;;;;;;;;20.00;93.90;;;;;;4345672;33;46338;-83
2021/07/27 14:06:24;;;;;;;;;;;20.00;94.00;;;;;;4345890;33;43000;-83
2021/07/27 14:08:56;;;;;;;;;;;20.00;94.00;;;;;;4356738;32;43259;-84
2021/07/27 14:11:23;;;;;;;;;;;19.90;94.00;;;;;;4357354;32;43751;-85
2021/07/27 14:13:54;;;;;;;;;;;19.90;94.10;;;;;;4345533;33;44058;-84
2021/07/27 14:16:24;;;;;;;;;;;19.80;94.20;;;;;;4344954;33;43475;-84
2021/07/27 14:18:55;;;;;;;;;;;19.80;94.20;;;;;;4333175;33;19994;-82
2021/07/27 14:21:25;;;;;;;;;;;19.80;94.20;;;;;;4346011;33;43248;-83
2021/07/27 14:23:57;;;;;;;;;;;19.80;94.50;;;;;;4332410;33;45317;-83
2021/07/27 14:26:28;;;;;;;;;;;19.70;94.10;;;;;;4357469;32;43432;-83
2021/07/27 14:28:58;;;;;;;;;;;19.70;94.10;;;;;;4344797;33;42648;-83
2021/07/27 14:31:25;;;;;;;;;;;19.70;94.60;;;;;;4344358;33;46150;-84
2021/07/27 14:33:52;;;;;;;;;;;19.70;94.20;;;;;;4344199;33;45156;-80
2021/07/27 14:36:19;;;;;;;;;;;19.70;94.30;;;;;;4344206;33;42631;-84
2021/07/27 14:38:48;;;;;;;;;;;19.70;94.30;;;;;;4344120;33;43836;-82
2021/07/27 14:41:20;;;;;;;;;;;19.70;94.30;;;;;;4343763;33;45733;-81
2021/07/27 14:43:48;;;;;;;;;;;19.70;94.30;;;;;;4345501;33;44743;-80
2021/07/27 14:46:15;;;;;;;;;;;19.70;94.30;;;;;;4332207;33;44235;-79
2021/07/27 14:48:45;;;;;;;;;;;19.80;94.20;;;;;;4356711;32;43558;-81